Maersk Missouri — WAHV — position and weather

sailwx.info

Track history (hours):
 
Tides and Currents Weather Stations Pressure Air Temp Water Temp Dewpoint Dewpoint Depression Visibility Wind Speed Wind Dir Waves Ship Positions

Maersk Missouri

Owner: MAERSK LINE, LIMITED, Norfolk, VA. More information available from US FCC via Universal Licensing System and Coast Guard Vessel Documentation Center.

Last reported at 2016-Sep-25 14:32 UTC. Time now 2016-Sep-26 00:15 UTC.
Position N 34°17' W 076°20'.

Type: Cargo ship. MMSI: 369708000.

Date/timePositionNaut miles runAvg speedWind from/ knotsBaromVisibWave heightAir tempDewpointWater temp
2016-Sep-25 14:32N 34°17' W 076°20'157 9.8
2016-Sep-24 22:33N 36°52' W 075°53'1211.7
2016-Sep-24 21:33N 36°58' W 076°06'13 6.5
2016-Sep-24 19:30N 36°53' W 076°21'0 0.0
2016-Sep-24 18:22N 36°53' W 076°21'0 0.0
2016-Sep-24 17:28N 36°53' W 076°21'0 0.0
2016-Sep-24 16:17N 36°53' W 076°21'0 0.0
2016-Sep-24 14:33N 36°53' W 076°21'0 0.0
2016-Sep-24 12:31N 36°53' W 076°21'72 7.2
2016-Sep-24 02:33N 36°48' W 074°51'5621.7
2016-Sep-24 00:00N 36°48' W 073°42'   360 / 221017.210.8 2.026.024.626.3
2016-Sep-21 00:00N 40°06' W 046°36'33818.8 170 / 101026.710.8 0.523.522.823.1
2016-Sep-20 06:00N 41°06' W 039°18'44918.7 230 / 111026.410.8 21.621.421.6
2016-Sep-19 06:00N 43°42' W 029°48'   999 / 21036.710.8 16.8 4.018.6
2016-Sep-16 17:15N 49°47' W 004°42'2916.3
2016-Sep-16 15:27N 49°52' W 003°57'13817.5
2016-Sep-16 07:33N 50°26' W 000°28'6115.3
2016-Sep-16 03:34N 50°48' E 001°02'1616.2
2016-Sep-16 02:33N 50°58' E 001°22'2814.0
2016-Sep-16 00:33N 51°19' E 001°52'2914.3
2016-Sep-15 22:33N 51°44' E 002°13'1716.3
2016-Sep-15 21:29N 51°60' E 002°27'1617.3
2016-Sep-15 20:33N 52°14' E 002°39'3417.2
2016-Sep-15 18:33N 52°43' E 003°08'  
Track history (hours):
 
Tides and Currents Weather Stations Pressure Air Temp Water Temp Dewpoint Dewpoint Depression Visibility Wind Speed Wind Dir Waves Ship Positions

Maersk Missouri

Owner: MAERSK LINE, LIMITED, Norfolk, VA. More information available from US FCC via Universal Licensing System and Coast Guard Vessel Documentation Center.

Last reported at 2016-Sep-25 14:32 UTC. Time now 2016-Sep-26 00:15 UTC.
Position N 34°17' W 076°20'.

Type: Cargo ship. MMSI: 369708000.

Date/timePositionNaut miles runAvg speedWind from/ knotsBaromVisibWave heightAir tempDewpointWater temp
2016-Sep-25 14:32N 34°17' W 076°20'157 9.8
2016-Sep-24 22:33N 36°52' W 075°53'1211.7
2016-Sep-24 21:33N 36°58' W 076°06'13 6.5
2016-Sep-24 19:30N 36°53' W 076°21'0 0.0
2016-Sep-24 18:22N 36°53' W 076°21'0 0.0
2016-Sep-24 17:28N 36°53' W 076°21'0 0.0
2016-Sep-24 16:17N 36°53' W 076°21'0 0.0
2016-Sep-24 14:33N 36°53' W 076°21'0 0.0
2016-Sep-24 12:31N 36°53' W 076°21'72 7.2
2016-Sep-24 02:33N 36°48' W 074°51'5621.7
2016-Sep-24 00:00N 36°48' W 073°42'   360 / 221017.210.8 2.026.024.626.3
2016-Sep-21 00:00N 40°06' W 046°36'33818.8 170 / 101026.710.8 0.523.522.823.1
2016-Sep-20 06:00N 41°06' W 039°18'44918.7 230 / 111026.410.8 21.621.421.6
2016-Sep-19 06:00N 43°42' W 029°48'   999 / 21036.710.8 16.8 4.018.6
2016-Sep-16 17:15N 49°47' W 004°42'2916.3
2016-Sep-16 15:27N 49°52' W 003°57'13817.5
2016-Sep-16 07:33N 50°26' W 000°28'6115.3
2016-Sep-16 03:34N 50°48' E 001°02'1616.2
2016-Sep-16 02:33N 50°58' E 001°22'2814.0
2016-Sep-16 00:33N 51°19' E 001°52'2914.3
2016-Sep-15 22:33N 51°44' E 002°13'1716.3
2016-Sep-15 21:29N 51°60' E 002°27'1617.3
2016-Sep-15 20:33N 52°14' E 002°39'3417.2
2016-Sep-15 18:33N 52°43' E 003°08'  

Dump ship's entire track history